Clay, Missouri
Current Conditions -  °F | °C
As of 8:35 AM on Thursday 29 Jan 2015 (Local Time) from KHAE Reporting Station
Overcast Overcast  
Wind Chill: 29°   Ceiling: 2400
Heat Index: 37°   Visibility: 10mi
Dew Point: 28°   Wind: 15mph
Humidity: 70%   Direction: 320°NW
Pressure: 30.09"   Gusts: 25mph
Location:  39.7145°N, 91.4209°W
Report Text: KHAE 291435Z AUTO 32013G22KT 10SM OVC024 03/M02 A3009 RMK AO2
Loading
Personal Weather Stations






























Interactive Weather Map New forecast layout! Learn more

10-Day Weather Forecast

Advertisements
Track Severe Weather on mobile